createdAt,value
2022-09-27T14:07:27.446Z,22.02
2022-09-27T14:10:01.859Z,22.14
2022-09-27T14:12:37.550Z,22.05
2022-09-27T14:15:16.581Z,21.82
2022-09-27T14:17:46.278Z,21.52
2022-09-27T14:20:40.033Z,21.21
2022-09-27T14:23:37.641Z,20.85
2022-09-27T14:26:06.408Z,20.54
2022-09-27T14:28:41.888Z,20.30
2022-09-27T14:31:25.169Z,20.07
2022-09-27T14:34:13.433Z,19.97
2022-09-27T14:37:04.537Z,20.05
2022-09-27T14:39:38.453Z,20.53
2022-09-27T14:42:25.064Z,20.93
2022-09-27T14:44:55.948Z,21.04
2022-09-27T14:47:27.888Z,21.00
2022-09-27T14:50:01.888Z,20.93
2022-09-27T14:52:34.868Z,20.80
2022-09-27T14:55:08.483Z,20.64
2022-09-27T14:57:37.405Z,20.48
2022-09-27T15:00:23.329Z,20.31
2022-09-27T15:02:56.250Z,20.06
2022-09-27T15:05:30.981Z,19.85
2022-09-27T15:08:02.625Z,19.65
2022-09-27T15:10:35.277Z,19.47
2022-09-27T15:13:05.557Z,19.32
2022-09-27T15:15:40.184Z,19.19
2022-09-27T15:18:32.575Z,19.06
2022-09-27T15:21:01.554Z,18.87
2022-09-27T15:23:36.381Z,18.74
2022-09-27T15:26:17.254Z,18.62
2022-09-27T15:28:48.348Z,18.49
2022-09-27T15:31:17.501Z,18.38
2022-09-27T15:33:55.237Z,18.26
2022-09-27T15:36:50.338Z,18.15
2022-09-27T15:39:28.707Z,18.03
2022-09-27T15:42:17.693Z,17.88
2022-09-27T15:44:54.225Z,17.73
2022-09-27T15:47:35.109Z,17.59
2022-09-27T15:50:15.681Z,17.45
2022-09-27T15:52:53.088Z,17.38
2022-09-27T15:55:29.474Z,17.64
2022-09-27T15:58:05.409Z,17.89
2022-09-27T16:00:35.696Z,18.09
2022-09-27T16:03:04.503Z,18.21
2022-09-27T16:05:33.525Z,18.32
2022-09-27T16:08:01.987Z,18.40
2022-09-27T16:10:38.603Z,18.48
2022-09-27T16:13:06.928Z,18.54
2022-09-27T16:15:36.934Z,18.59
2022-09-27T16:18:05.659Z,18.67
2022-09-27T16:20:34.017Z,18.73
2022-09-27T16:23:02.608Z,18.79
2022-09-27T16:25:31.399Z,18.84
2022-09-27T16:28:04.157Z,18.90
2022-09-27T16:30:33.599Z,18.94
2022-09-27T16:33:01.836Z,18.95
2022-09-27T16:35:30.216Z,18.98
2022-09-27T16:37:58.899Z,19.01
2022-09-27T16:40:28.431Z,19.00
2022-09-27T16:42:56.783Z,18.99
2022-09-27T16:45:32.881Z,19.01
2022-09-27T16:48:01.573Z,19.00
2022-09-27T16:50:49.672Z,18.89
2022-09-27T16:53:18.255Z,18.26
2022-09-27T16:55:47.039Z,17.71
2022-09-27T16:58:15.418Z,17.27
2022-09-27T17:00:44.586Z,16.93
2022-09-27T17:03:13.520Z,16.71
2022-09-27T17:05:41.885Z,16.97
2022-09-27T17:08:10.368Z,17.32
2022-09-27T17:10:44.191Z,17.57
2022-09-27T17:13:13.719Z,17.76
2022-09-27T17:15:42.203Z,17.90
2022-09-27T17:18:13.097Z,17.98
2022-09-27T17:20:41.994Z,18.03
2022-09-27T17:23:11.084Z,18.06
2022-09-27T17:25:39.565Z,18.12
2022-09-27T17:28:08.052Z,18.15
2022-09-27T17:30:36.644Z,18.14
2022-09-27T17:33:05.727Z,18.10
2022-09-27T17:35:34.201Z,18.08
2022-09-27T17:38:02.766Z,18.06
2022-09-27T17:40:31.998Z,17.99
2022-09-27T17:43:00.379Z,17.96
2022-09-27T17:45:29.250Z,17.93
2022-09-27T17:48:20.877Z,17.89
2022-09-27T17:50:49.462Z,17.84
2022-09-27T17:53:18.142Z,17.80
2022-09-27T17:55:47.034Z,17.76
2022-09-27T17:58:15.617Z,17.75
2022-09-27T18:00:44.097Z,17.77
2022-09-27T18:03:12.682Z,17.77
2022-09-27T18:05:41.473Z,17.74
2022-09-27T18:08:10.055Z,17.70
2022-09-27T18:10:40.082Z,17.66
2022-09-27T18:13:08.654Z,17.61
2022-09-27T18:15:37.547Z,17.60
2022-09-27T18:18:06.473Z,17.57
2022-09-27T18:20:37.170Z,17.56
2022-09-27T18:23:05.547Z,17.52
2022-09-27T18:25:41.094Z,17.46
2022-09-27T18:28:11.825Z,17.43
2022-09-27T18:30:40.527Z,17.42
2022-09-27T18:33:09.101Z,17.35
2022-09-27T18:35:38.003Z,17.27
2022-09-27T18:38:06.383Z,17.21
2022-09-27T18:40:55.277Z,17.16
2022-09-27T18:43:26.058Z,17.11
2022-09-27T18:45:54.449Z,17.03
2022-09-27T18:48:22.812Z,16.97
2022-09-27T18:50:51.504Z,16.90
2022-09-27T18:53:19.849Z,16.83
2022-09-27T18:55:48.569Z,16.74
2022-09-27T18:58:17.867Z,16.69
2022-09-27T19:00:47.204Z,16.65
2022-09-27T19:03:16.500Z,16.63
2022-09-27T19:05:54.323Z,16.63
2022-09-27T19:08:26.652Z,16.58
2022-09-27T19:10:55.702Z,16.53
2022-09-27T19:13:28.886Z,16.48
2022-09-27T19:16:01.309Z,16.40
2022-09-27T19:18:30.256Z,16.35
2022-09-27T19:21:10.782Z,16.30
2022-09-27T19:23:40.148Z,16.24
2022-09-27T19:26:11.914Z,16.20
2022-09-27T19:28:42.889Z,16.21
2022-09-27T19:31:17.174Z,16.21
2022-09-27T19:33:46.081Z,16.22
2022-09-27T19:36:17.494Z,16.25
2022-09-27T19:38:46.806Z,16.27
2022-09-27T19:41:16.727Z,16.30
2022-09-27T19:43:51.511Z,16.31
2022-09-27T19:46:21.780Z,16.30
2022-09-27T19:48:51.423Z,16.31
2022-09-27T19:51:22.321Z,16.29
2022-09-27T19:53:52.252Z,16.28
2022-09-27T19:56:21.631Z,16.31
2022-09-27T19:58:50.429Z,16.40
2022-09-27T20:01:22.515Z,16.47
2022-09-27T20:03:52.929Z,16.49
2022-09-27T20:06:22.376Z,16.52
2022-09-27T20:08:52.492Z,16.59
2022-09-27T20:11:23.686Z,16.60
2022-09-27T20:13:53.093Z,16.61
2022-09-27T20:16:24.119Z,16.56
2022-09-27T20:18:55.068Z,16.46
